Hundvaag 1 weather for Nov 1988
Month no. 17
Obs.
Da.
Temp. Dew Point Precip. Wind
Speed
Wind gusts Cloud cover Press. Humidity Wind dir. Sunny OPT
01.11.1988 6,8   21,7             1  
02.11.1988 2,8   4,5             1  
03.11.1988 2,2   0,3             1  
04.11.1988 4,8   0,0                
05.11.1988 6,8   8,2             1  
06.11.1988 6,9   5,9                
07.11.1988 0,0   0,0             1  
08.11.1988 7,0   2,6                
09.11.1988 4,7   0,0                
10.11.1988 7,7   5,3                
11.11.1988 7,7   19,4                
12.11.1988 7,0   0,0             1  
13.11.1988 6,0   7,6             1  
14.11.1988 5,1   5,5                
15.11.1988 8,7   4,2                
16.11.1988 6,7   1,4             1  
17.11.1988 7,2   1,1                
18.11.1988 5,8   2,7             1  
19.11.1988 0,1   0,5             1  
20.11.1988 -1,8   0,0             1  
21.11.1988 -4,9   0,0             1  
22.11.1988 -0,1   4,5             1  
23.11.1988 4,2   1,5             1  
24.11.1988 7,8   7,0                
25.11.1988 7,7   11,7                
26.11.1988 4,5   4,9                
27.11.1988 2,1   1,9                
28.11.1988 4,1   12,4                
29.11.1988 2,1   28,9             1  
30.11.1988 -2,6   0,0                
                       
Avrg/Sum 4,2   163,7             15